sensor_id;sensor_type;location;lat;lon;timestamp;pressure;altitude;pressure_sealevel;temperature;humidity
35892;BME280;21993;42.672;23.296;2023-07-13T00:01:28;94965.91;;;26.90;49.66
35892;BME280;21993;42.672;23.296;2023-07-13T00:03:57;94963.09;;;26.85;49.31
35892;BME280;21993;42.672;23.296;2023-07-13T00:06:23;94971.44;;;26.83;48.89
35892;BME280;21993;42.672;23.296;2023-07-13T00:08:49;94957.22;;;26.76;49.15
35892;BME280;21993;42.672;23.296;2023-07-13T00:11:15;94961.66;;;26.71;48.46
35892;BME280;21993;42.672;23.296;2023-07-13T00:13:42;94965.63;;;26.68;48.46
35892;BME280;21993;42.672;23.296;2023-07-13T00:16:08;94964.00;;;26.67;48.59
35892;BME280;21993;42.672;23.296;2023-07-13T00:18:34;94950.97;;;26.64;48.15
35892;BME280;21993;42.672;23.296;2023-07-13T00:21:00;94949.78;;;26.60;47.89
35892;BME280;21993;42.672;23.296;2023-07-13T00:23:33;94954.13;;;26.61;48.66
35892;BME280;21993;42.672;23.296;2023-07-13T00:26:01;94950.16;;;26.63;49.30
35892;BME280;21993;42.672;23.296;2023-07-13T00:28:27;94954.38;;;26.59;48.81
35892;BME280;21993;42.672;23.296;2023-07-13T00:30:52;94938.19;;;26.59;49.21
35892;BME280;21993;42.672;23.296;2023-07-13T00:33:17;94946.03;;;26.61;49.36
35892;BME280;21993;42.672;23.296;2023-07-13T00:35:43;94951.66;;;26.59;49.68
35892;BME280;21993;42.672;23.296;2023-07-13T00:38:09;94944.25;;;26.55;50.75
35892;BME280;21993;42.672;23.296;2023-07-13T00:40:34;94946.00;;;26.49;50.73
35892;BME280;21993;42.672;23.296;2023-07-13T00:43:00;94948.56;;;26.44;50.92
35892;BME280;21993;42.672;23.296;2023-07-13T00:47:51;94948.78;;;26.43;51.19
35892;BME280;21993;42.672;23.296;2023-07-13T00:50:18;94950.06;;;26.40;51.61
35892;BME280;21993;42.672;23.296;2023-07-13T00:52:47;94944.06;;;26.38;51.67
35892;BME280;21993;42.672;23.296;2023-07-13T00:55:14;94952.81;;;26.33;51.97
35892;BME280;21993;42.672;23.296;2023-07-13T00:57:40;94953.25;;;26.30;51.71
35892;BME280;21993;42.672;23.296;2023-07-13T01:00:07;94948.56;;;26.26;52.34
35892;BME280;21993;42.672;23.296;2023-07-13T01:02:35;94945.72;;;26.21;52.47
35892;BME280;21993;42.672;23.296;2023-07-13T01:05:12;94941.84;;;26.17;52.27
35892;BME280;21993;42.672;23.296;2023-07-13T01:07:40;94944.84;;;26.08;52.70
35892;BME280;21993;42.672;23.296;2023-07-13T01:10:06;94940.53;;;26.07;52.46
35892;BME280;21993;42.672;23.296;2023-07-13T01:12:32;94944.69;;;26.03;53.21
35892;BME280;21993;42.672;23.296;2023-07-13T01:15:01;94949.50;;;26.01;53.05
35892;BME280;21993;42.672;23.296;2023-07-13T01:17:30;94947.63;;;26.02;53.57
35892;BME280;21993;42.672;23.296;2023-07-13T01:19:56;94942.00;;;26.03;53.51
35892;BME280;21993;42.672;23.296;2023-07-13T01:22:22;94940.22;;;25.97;53.44
35892;BME280;21993;42.672;23.296;2023-07-13T01:24:52;94940.91;;;25.93;52.80
35892;BME280;21993;42.672;23.296;2023-07-13T01:27:23;94931.19;;;25.92;53.70
35892;BME280;21993;42.672;23.296;2023-07-13T01:29:50;94936.41;;;25.87;53.89
35892;BME280;21993;42.672;23.296;2023-07-13T01:32:19;94924.84;;;25.86;53.99
35892;BME280;21993;42.672;23.296;2023-07-13T01:34:48;94939.09;;;25.87;53.52
35892;BME280;21993;42.672;23.296;2023-07-13T01:37:13;94933.78;;;25.80;53.75
35892;BME280;21993;42.672;23.296;2023-07-13T01:39:39;94934.03;;;25.78;53.92
35892;BME280;21993;42.672;23.296;2023-07-13T01:42:05;94929.09;;;25.75;53.65
35892;BME280;21993;42.672;23.296;2023-07-13T01:44:30;94928.88;;;25.77;53.89
35892;BME280;21993;42.672;23.296;2023-07-13T01:46:56;94922.69;;;25.76;53.96
35892;BME280;21993;42.672;23.296;2023-07-13T01:49:21;94925.03;;;25.66;54.42
35892;BME280;21993;42.672;23.296;2023-07-13T01:51:47;94928.38;;;25.62;54.27
35892;BME280;21993;42.672;23.296;2023-07-13T01:54:12;94937.72;;;25.59;53.89
35892;BME280;21993;42.672;23.296;2023-07-13T01:56:37;94930.47;;;25.60;54.73
35892;BME280;21993;42.672;23.296;2023-07-13T01:59:03;94937.03;;;25.64;54.47
35892;BME280;21993;42.672;23.296;2023-07-13T02:01:29;94933.00;;;25.54;54.27
35892;BME280;21993;42.672;23.296;2023-07-13T02:03:55;94927.50;;;25.49;53.90
35892;BME280;21993;42.672;23.296;2023-07-13T02:06:20;94937.47;;;25.42;54.40
35892;BME280;21993;42.672;23.296;2023-07-13T02:08:46;94944.50;;;25.43;54.30
35892;BME280;21993;42.672;23.296;2023-07-13T02:11:11;94949.06;;;25.43;54.31
35892;BME280;21993;42.672;23.296;2023-07-13T02:13:37;94950.34;;;25.40;54.08
35892;BME280;21993;42.672;23.296;2023-07-13T02:16:02;94947.84;;;25.39;55.07
35892;BME280;21993;42.672;23.296;2023-07-13T02:18:28;94948.28;;;25.36;54.88
35892;BME280;21993;42.672;23.296;2023-07-13T02:20:53;94942.91;;;25.36;55.44
35892;BME280;21993;42.672;23.296;2023-07-13T02:23:19;94940.91;;;25.31;55.08
35892;BME280;21993;42.672;23.296;2023-07-13T02:25:45;94947.16;;;25.25;55.08
35892;BME280;21993;42.672;23.296;2023-07-13T02:28:10;94956.09;;;25.19;54.84
35892;BME280;21993;42.672;23.296;2023-07-13T02:30:36;94957.19;;;25.11;54.21
35892;BME280;21993;42.672;23.296;2023-07-13T02:33:01;94949.34;;;25.10;54.37
35892;BME280;21993;42.672;23.296;2023-07-13T02:35:26;94955.59;;;25.04;55.08
35892;BME280;21993;42.672;23.296;2023-07-13T02:37:52;94957.28;;;24.98;54.93
35892;BME280;21993;42.672;23.296;2023-07-13T02:40:17;94942.81;;;24.99;55.76
35892;BME280;21993;42.672;23.296;2023-07-13T02:42:43;94953.78;;;24.97;55.02
35892;BME280;21993;42.672;23.296;2023-07-13T02:45:09;94951.28;;;24.96;55.36
35892;BME280;21993;42.672;23.296;2023-07-13T02:47:35;94945.09;;;24.95;55.26
35892;BME280;21993;42.672;23.296;2023-07-13T02:50:01;94951.50;;;24.94;55.48
35892;BME280;21993;42.672;23.296;2023-07-13T02:52:27;94955.25;;;24.93;56.11
35892;BME280;21993;42.672;23.296;2023-07-13T02:54:52;94958.16;;;24.92;56.19
35892;BME280;21993;42.672;23.296;2023-07-13T02:57:18;94953.22;;;24.89;56.80
35892;BME280;21993;42.672;23.296;2023-07-13T02:59:43;94951.78;;;24.86;56.68
35892;BME280;21993;42.672;23.296;2023-07-13T03:02:09;94955.91;;;24.89;56.84
35892;BME280;21993;42.672;23.296;2023-07-13T03:04:36;94961.91;;;24.84;57.08
35892;BME280;21993;42.672;23.296;2023-07-13T03:07:02;94972.66;;;24.84;57.08
35892;BME280;21993;42.672;23.296;2023-07-13T03:09:27;94965.06;;;24.81;56.80
35892;BME280;21993;42.672;23.296;2023-07-13T03:11:54;94969.16;;;24.84;57.23
35892;BME280;21993;42.672;23.296;2023-07-13T03:14:20;94970.41;;;24.81;57.47
35892;BME280;21993;42.672;23.296;2023-07-13T03:16:46;94961.13;;;24.77;57.56
35892;BME280;21993;42.672;23.296;2023-07-13T03:19:11;94969.63;;;24.74;58.16
35892;BME280;21993;42.672;23.296;2023-07-13T03:21:37;94968.81;;;24.74;57.96
35892;BME280;21993;42.672;23.296;2023-07-13T03:24:02;94968.19;;;24.71;58.73
35892;BME280;21993;42.672;23.296;2023-07-13T03:26:30;94967.78;;;24.75;58.20
35892;BME280;21993;42.672;23.296;2023-07-13T03:28:55;94966.34;;;24.72;58.26
35892;BME280;21993;42.672;23.296;2023-07-13T03:31:31;94979.97;;;24.70;58.70
35892;BME280;21993;42.672;23.296;2023-07-13T03:33:56;94971.53;;;24.67;58.29
35892;BME280;21993;42.672;23.296;2023-07-13T03:36:26;94979.00;;;24.65;58.84
35892;BME280;21993;42.672;23.296;2023-07-13T03:38:54;94977.34;;;24.64;59.31
35892;BME280;21993;42.672;23.296;2023-07-13T03:41:21;94980.41;;;24.67;58.90
35892;BME280;21993;42.672;23.296;2023-07-13T03:43:48;94972.81;;;24.64;59.46
35892;BME280;21993;42.672;23.296;2023-07-13T03:46:14;94984.38;;;24.65;59.19
35892;BME280;21993;42.672;23.296;2023-07-13T03:48:41;94980.22;;;24.62;58.85
35892;BME280;21993;42.672;23.296;2023-07-13T03:51:08;94977.16;;;24.59;58.57
35892;BME280;21993;42.672;23.296;2023-07-13T03:53:38;94980.88;;;24.58;59.02
35892;BME280;21993;42.672;23.296;2023-07-13T03:56:04;94975.75;;;24.56;59.19
35892;BME280;21993;42.672;23.296;2023-07-13T03:58:35;94968.88;;;24.60;59.32
35892;BME280;21993;42.672;23.296;2023-07-13T04:01:03;94973.66;;;24.58;59.37
35892;BME280;21993;42.672;23.296;2023-07-13T04:03:29;94971.19;;;24.57;59.68
35892;BME280;21993;42.672;23.296;2023-07-13T04:05:58;94969.13;;;24.52;59.33
35892;BME280;21993;42.672;23.296;2023-07-13T04:08:28;94970.78;;;24.53;60.25
35892;BME280;21993;42.672;23.296;2023-07-13T04:10:54;94965.97;;;24.62;60.23
35892;BME280;21993;42.672;23.296;2023-07-13T04:13:20;94969.09;;;24.59;59.82
35892;BME280;21993;42.672;23.296;2023-07-13T04:15:45;94967.06;;;24.54;60.07
35892;BME280;21993;42.672;23.296;2023-07-13T04:18:11;94967.63;;;24.63;59.28
35892;BME280;21993;42.672;23.296;2023-07-13T04:20:36;94961.88;;;24.59;59.66
35892;BME280;21993;42.672;23.296;2023-07-13T04:23:02;94969.97;;;24.53;60.18
35892;BME280;21993;42.672;23.296;2023-07-13T04:25:27;94973.06;;;24.56;60.07
35892;BME280;21993;42.672;23.296;2023-07-13T04:27:53;94987.47;;;24.62;60.26
35892;BME280;21993;42.672;23.296;2023-07-13T04:30:19;94984.22;;;24.53;60.23
35892;BME280;21993;42.672;23.296;2023-07-13T04:32:45;94987.69;;;24.60;61.34
35892;BME280;21993;42.672;23.296;2023-07-13T04:35:10;94987.25;;;24.63;61.18
35892;BME280;21993;42.672;23.296;2023-07-13T04:37:36;94988.91;;;24.64;60.90
35892;BME280;21993;42.672;23.296;2023-07-13T04:40:02;94994.44;;;24.69;61.32
35892;BME280;21993;42.672;23.296;2023-07-13T04:42:28;94995.69;;;24.67;61.30
35892;BME280;21993;42.672;23.296;2023-07-13T04:44:54;94999.81;;;24.69;61.50
35892;BME280;21993;42.672;23.296;2023-07-13T04:47:20;95001.63;;;24.76;61.18
35892;BME280;21993;42.672;23.296;2023-07-13T04:49:45;94996.66;;;24.79;60.85
35892;BME280;21993;42.672;23.296;2023-07-13T04:52:11;94990.69;;;24.77;61.40
35892;BME280;21993;42.672;23.296;2023-07-13T04:54:37;95007.69;;;24.96;60.85
35892;BME280;21993;42.672;23.296;2023-07-13T04:57:04;95004.19;;;24.95;60.85
35892;BME280;21993;42.672;23.296;2023-07-13T04:59:32;94998.69;;;24.84;61.43
35892;BME280;21993;42.672;23.296;2023-07-13T05:01:57;95008.63;;;24.83;61.05
35892;BME280;21993;42.672;23.296;2023-07-13T05:04:23;95006.75;;;24.84;61.34
35892;BME280;21993;42.672;23.296;2023-07-13T05:06:48;95003.00;;;24.91;60.87
35892;BME280;21993;42.672;23.296;2023-07-13T05:09:13;95012.56;;;25.12;60.47
35892;BME280;21993;42.672;23.296;2023-07-13T05:11:39;95005.19;;;25.08;60.63
35892;BME280;21993;42.672;23.296;2023-07-13T05:14:04;95013.38;;;25.13;60.23
35892;BME280;21993;42.672;23.296;2023-07-13T05:16:30;95014.84;;;25.15;60.37
35892;BME280;21993;42.672;23.296;2023-07-13T05:18:57;95025.19;;;25.12;60.63
35892;BME280;21993;42.672;23.296;2023-07-13T05:21:22;95018.75;;;25.13;60.26
35892;BME280;21993;42.672;23.296;2023-07-13T05:23:48;95013.13;;;25.21;60.13
35892;BME280;21993;42.672;23.296;2023-07-13T05:26:13;95011.63;;;25.32;59.40
35892;BME280;21993;42.672;23.296;2023-07-13T05:28:39;95021.31;;;25.33;59.38
35892;BME280;21993;42.672;23.296;2023-07-13T05:31:06;95011.63;;;25.32;59.22
35892;BME280;21993;42.672;23.296;2023-07-13T05:33:32;95013.41;;;25.38;58.68
35892;BME280;21993;42.672;23.296;2023-07-13T05:35:57;95019.31;;;25.46;58.27
35892;BME280;21993;42.672;23.296;2023-07-13T05:38:23;95022.91;;;25.40;59.16
35892;BME280;21993;42.672;23.296;2023-07-13T05:40:49;95017.13;;;25.37;58.88
35892;BME280;21993;42.672;23.296;2023-07-13T05:43:15;95024.16;;;25.38;59.60
35892;BME280;21993;42.672;23.296;2023-07-13T05:45:41;95029.44;;;25.76;58.82
35892;BME280;21993;42.672;23.296;2023-07-13T05:48:06;95025.25;;;25.55;59.67
35892;BME280;21993;42.672;23.296;2023-07-13T05:50:32;95019.22;;;25.60;59.45
35892;BME280;21993;42.672;23.296;2023-07-13T05:52:57;95025.97;;;25.69;59.12
35892;BME280;21993;42.672;23.296;2023-07-13T05:55:23;95025.78;;;25.89;58.27
35892;BME280;21993;42.672;23.296;2023-07-13T05:57:48;95026.16;;;25.74;58.39
35892;BME280;21993;42.672;23.296;2023-07-13T06:00:15;95018.91;;;25.74;59.08
35892;BME280;21993;42.672;23.296;2023-07-13T06:02:41;95014.19;;;25.88;58.33
35892;BME280;21993;42.672;23.296;2023-07-13T06:05:07;95007.03;;;26.00;57.65
35892;BME280;21993;42.672;23.296;2023-07-13T06:07:32;95007.41;;;26.04;56.42
35892;BME280;21993;42.672;23.296;2023-07-13T06:09:57;95003.31;;;26.01;56.57
35892;BME280;21993;42.672;23.296;2023-07-13T06:12:25;95006.28;;;25.93;57.00
35892;BME280;21993;42.672;23.296;2023-07-13T06:14:50;95021.44;;;25.88;56.87
35892;BME280;21993;42.672;23.296;2023-07-13T06:17:15;95016.69;;;26.08;56.16
35892;BME280;21993;42.672;23.296;2023-07-13T06:19:41;95016.25;;;26.11;56.26
35892;BME280;21993;42.672;23.296;2023-07-13T06:22:06;95017.81;;;26.00;56.82
35892;BME280;21993;42.672;23.296;2023-07-13T06:24:32;95018.34;;;26.09;57.02
35892;BME280;21993;42.672;23.296;2023-07-13T06:26:57;95023.78;;;26.21;57.01
35892;BME280;21993;42.672;23.296;2023-07-13T06:29:22;95023.25;;;26.30;56.78
35892;BME280;21993;42.672;23.296;2023-07-13T06:31:48;95020.78;;;26.29;57.01
35892;BME280;21993;42.672;23.296;2023-07-13T06:34:13;95017.78;;;26.37;56.75
35892;BME280;21993;42.672;23.296;2023-07-13T06:36:38;95014.34;;;26.67;54.62
35892;BME280;21993;42.672;23.296;2023-07-13T06:39:04;95022.78;;;26.70;54.94
35892;BME280;21993;42.672;23.296;2023-07-13T06:41:29;95018.19;;;26.59;55.60
35892;BME280;21993;42.672;23.296;2023-07-13T06:43:56;95008.34;;;26.64;55.27
35892;BME280;21993;42.672;23.296;2023-07-13T06:46:22;95015.28;;;26.72;55.13
35892;BME280;21993;42.672;23.296;2023-07-13T06:48:47;95009.16;;;26.95;53.89
35892;BME280;21993;42.672;23.296;2023-07-13T06:51:13;95005.88;;;26.93;54.34
35892;BME280;21993;42.672;23.296;2023-07-13T06:53:39;95013.25;;;26.86;54.30
35892;BME280;21993;42.672;23.296;2023-07-13T06:56:04;95011.13;;;26.88;54.33
35892;BME280;21993;42.672;23.296;2023-07-13T06:58:30;95010.56;;;26.98;54.10
35892;BME280;21993;42.672;23.296;2023-07-13T07:00:56;95000.13;;;27.08;53.38
35892;BME280;21993;42.672;23.296;2023-07-13T07:03:21;95013.84;;;27.18;53.20
35892;BME280;21993;42.672;23.296;2023-07-13T07:05:46;95016.16;;;27.14;54.14
35892;BME280;21993;42.672;23.296;2023-07-13T07:08:12;95013.03;;;27.29;53.02
35892;BME280;21993;42.672;23.296;2023-07-13T07:10:37;95009.03;;;27.32;52.86
35892;BME280;21993;42.672;23.296;2023-07-13T07:13:03;95011.28;;;27.46;52.54
35892;BME280;21993;42.672;23.296;2023-07-13T07:15:29;95004.16;;;27.52;51.71
35892;BME280;21993;42.672;23.296;2023-07-13T07:17:54;95006.84;;;27.52;51.57
35892;BME280;21993;42.672;23.296;2023-07-13T07:20:20;95005.47;;;27.49;51.98
35892;BME280;21993;42.672;23.296;2023-07-13T07:22:46;95003.91;;;27.54;52.39
35892;BME280;21993;42.672;23.296;2023-07-13T07:25:12;94991.16;;;27.61;51.46
35892;BME280;21993;42.672;23.296;2023-07-13T07:27:38;95004.06;;;27.70;51.18
35892;BME280;21993;42.672;23.296;2023-07-13T07:30:04;95002.53;;;27.86;50.55
35892;BME280;21993;42.672;23.296;2023-07-13T07:32:30;94999.63;;;27.76;51.31
35892;BME280;21993;42.672;23.296;2023-07-13T07:34:57;94993.06;;;27.84;51.56
35892;BME280;21993;42.672;23.296;2023-07-13T07:37:23;94988.47;;;27.84;51.68
35892;BME280;21993;42.672;23.296;2023-07-13T07:39:49;94988.22;;;27.86;52.05
35892;BME280;21993;42.672;23.296;2023-07-13T07:42:14;94986.31;;;27.98;51.79
35892;BME280;21993;42.672;23.296;2023-07-13T07:44:40;94984.94;;;27.95;52.99
35892;BME280;21993;42.672;23.296;2023-07-13T07:47:06;94979.75;;;28.05;51.96
35892;BME280;21993;42.672;23.296;2023-07-13T07:49:32;94987.84;;;28.05;52.40
35892;BME280;21993;42.672;23.296;2023-07-13T07:51:58;94983.25;;;28.18;52.15
35892;BME280;21993;42.672;23.296;2023-07-13T07:54:23;94983.09;;;28.24;50.81
35892;BME280;21993;42.672;23.296;2023-07-13T07:56:48;94979.38;;;28.25;50.57
35892;BME280;21993;42.672;23.296;2023-07-13T07:59:14;94977.59;;;28.43;49.54
35892;BME280;21993;42.672;23.296;2023-07-13T08:01:39;94970.38;;;28.48;48.79
35892;BME280;21993;42.672;23.296;2023-07-13T08:04:05;94965.09;;;28.53;48.16
35892;BME280;21993;42.672;23.296;2023-07-13T08:06:32;94966.78;;;28.43;49.17
35892;BME280;21993;42.672;23.296;2023-07-13T08:08:58;94955.50;;;28.46;49.09
35892;BME280;21993;42.672;23.296;2023-07-13T08:11:24;94951.53;;;28.37;49.89
35892;BME280;21993;42.672;23.296;2023-07-13T08:13:50;94959.63;;;28.37;49.69
35892;BME280;21993;42.672;23.296;2023-07-13T08:16:15;94953.47;;;28.53;49.85
35892;BME280;21993;42.672;23.296;2023-07-13T08:18:41;94954.59;;;28.57;49.39
35892;BME280;21993;42.672;23.296;2023-07-13T08:21:08;94946.88;;;28.49;50.63
35892;BME280;21993;42.672;23.296;2023-07-13T08:23:34;94938.66;;;28.55;50.56
35892;BME280;21993;42.672;23.296;2023-07-13T08:26:00;94943.41;;;28.65;50.39
35892;BME280;21993;42.672;23.296;2023-07-13T08:28:30;94942.13;;;28.68;50.31
35892;BME280;21993;42.672;23.296;2023-07-13T08:31:02;94945.34;;;28.81;50.57
35892;BME280;21993;42.672;23.296;2023-07-13T08:33:28;94948.84;;;28.94;49.80
35892;BME280;21993;42.672;23.296;2023-07-13T08:35:53;94941.41;;;28.89;49.68
35892;BME280;21993;42.672;23.296;2023-07-13T08:38:19;94934.16;;;28.90;50.54
35892;BME280;21993;42.672;23.296;2023-07-13T08:40:52;94930.81;;;28.99;50.23
35892;BME280;21993;42.672;23.296;2023-07-13T08:43:23;94918.84;;;29.12;49.08
35892;BME280;21993;42.672;23.296;2023-07-13T08:45:53;94929.72;;;29.17;50.12
35892;BME280;21993;42.672;23.296;2023-07-13T08:48:35;94928.03;;;29.28;49.04
35892;BME280;21993;42.672;23.296;2023-07-13T08:51:15;94936.88;;;29.40;48.01
35892;BME280;21993;42.672;23.296;2023-07-13T08:53:49;94930.31;;;29.36;48.46
35892;BME280;21993;42.672;23.296;2023-07-13T08:56:25;94924.72;;;29.42;47.85
35892;BME280;21993;42.672;23.296;2023-07-13T08:58:58;94938.25;;;29.42;48.14
35892;BME280;21993;42.672;23.296;2023-07-13T09:01:33;94939.97;;;29.49;46.92
35892;BME280;21993;42.672;23.296;2023-07-13T09:04:17;94948.84;;;29.44;47.19
35892;BME280;21993;42.672;23.296;2023-07-13T09:11:55;94966.72;;;29.62;48.31
35892;BME280;21993;42.672;23.296;2023-07-13T09:17:05;94956.84;;;29.89;47.49
35892;BME280;21993;42.672;23.296;2023-07-13T09:19:32;94954.78;;;29.96;47.74
35892;BME280;21993;42.672;23.296;2023-07-13T09:22:02;94954.19;;;30.11;46.92
35892;BME280;21993;42.672;23.296;2023-07-13T09:24:41;94957.31;;;30.25;47.28
35892;BME280;21993;42.672;23.296;2023-07-13T09:27:17;94953.16;;;30.39;45.35
35892;BME280;21993;42.672;23.296;2023-07-13T09:29:57;94953.09;;;30.34;46.57
35892;BME280;21993;42.672;23.296;2023-07-13T09:32:26;94949.63;;;30.39;46.87
35892;BME280;21993;42.672;23.296;2023-07-13T09:34:53;94956.50;;;30.46;46.07
35892;BME280;21993;42.672;23.296;2023-07-13T09:37:27;94946.53;;;30.52;46.83
35892;BME280;21993;42.672;23.296;2023-07-13T09:39:54;94944.75;;;30.63;46.52
35892;BME280;21993;42.672;23.296;2023-07-13T09:42:22;94940.56;;;30.72;44.87
35892;BME280;21993;42.672;23.296;2023-07-13T09:44:52;94936.22;;;30.71;45.11
35892;BME280;21993;42.672;23.296;2023-07-13T09:47:30;94927.00;;;30.72;45.13
35892;BME280;21993;42.672;23.296;2023-07-13T09:50:06;94929.34;;;30.90;45.20
35892;BME280;21993;42.672;23.296;2023-07-13T09:52:43;94928.06;;;30.98;44.92
35892;BME280;21993;42.672;23.296;2023-07-13T09:55:29;94922.91;;;31.01;44.31
35892;BME280;21993;42.672;23.296;2023-07-13T09:57:56;94920.00;;;31.08;44.45
35892;BME280;21993;42.672;23.296;2023-07-13T10:00:27;94917.34;;;31.13;44.13
35892;BME280;21993;42.672;23.296;2023-07-13T10:03:21;94909.97;;;31.08;44.37
35892;BME280;21993;42.672;23.296;2023-07-13T10:05:49;94901.09;;;31.18;45.00
35892;BME280;21993;42.672;23.296;2023-07-13T10:08:22;94901.78;;;31.30;44.17
35892;BME280;21993;42.672;23.296;2023-07-13T10:10:53;94897.75;;;31.38;41.71
35892;BME280;21993;42.672;23.296;2023-07-13T10:13:37;94893.44;;;31.42;39.59
35892;BME280;21993;42.672;23.296;2023-07-13T10:16:06;94893.25;;;31.59;37.44
35892;BME280;21993;42.672;23.296;2023-07-13T10:21:12;94902.97;;;31.87;35.35
35892;BME280;21993;42.672;23.296;2023-07-13T10:23:39;94894.31;;;32.00;34.95
35892;BME280;21993;42.672;23.296;2023-07-13T10:26:06;94891.38;;;32.07;35.07
35892;BME280;21993;42.672;23.296;2023-07-13T10:28:38;94897.94;;;32.16;35.35
35892;BME280;21993;42.672;23.296;2023-07-13T10:31:06;94889.00;;;32.26;33.94
35892;BME280;21993;42.672;23.296;2023-07-13T10:33:36;94892.34;;;32.38;34.00
35892;BME280;21993;42.672;23.296;2023-07-13T10:36:15;94883.94;;;32.49;34.10
35892;BME280;21993;42.672;23.296;2023-07-13T10:38:43;94873.63;;;32.57;34.69
35892;BME280;21993;42.672;23.296;2023-07-13T10:41:15;94876.09;;;32.63;34.91
35892;BME280;21993;42.672;23.296;2023-07-13T10:43:44;94879.63;;;32.79;34.25
35892;BME280;21993;42.672;23.296;2023-07-13T10:46:13;94876.69;;;33.01;32.87
35892;BME280;21993;42.672;23.296;2023-07-13T10:48:40;94864.97;;;33.11;32.56
35892;BME280;21993;42.672;23.296;2023-07-13T10:51:08;94860.63;;;33.10;32.35
35892;BME280;21993;42.672;23.296;2023-07-13T10:53:39;94853.25;;;33.20;32.89
35892;BME280;21993;42.672;23.296;2023-07-13T10:58:43;94850.28;;;33.47;32.63
35892;BME280;21993;42.672;23.296;2023-07-13T11:01:11;94847.28;;;33.49;32.17
35892;BME280;21993;42.672;23.296;2023-07-13T11:06:15;94839.31;;;33.63;31.33
35892;BME280;21993;42.672;23.296;2023-07-13T11:11:34;94842.00;;;33.83;31.31
35892;BME280;21993;42.672;23.296;2023-07-13T11:14:02;94822.38;;;33.91;31.01
35892;BME280;21993;42.672;23.296;2023-07-13T11:16:44;94823.16;;;33.97;31.57
35892;BME280;21993;42.672;23.296;2023-07-13T11:22:01;94816.53;;;34.18;30.77
35892;BME280;21993;42.672;23.296;2023-07-13T11:24:52;94811.59;;;34.20;30.50
35892;BME280;21993;42.672;23.296;2023-07-13T11:27:24;94813.50;;;34.20;31.54
35892;BME280;21993;42.672;23.296;2023-07-13T11:30:18;94809.91;;;34.29;32.05
35892;BME280;21993;42.672;23.296;2023-07-13T11:32:50;94808.75;;;34.46;30.96
35892;BME280;21993;42.672;23.296;2023-07-13T11:35:21;94804.91;;;34.47;31.69
35892;BME280;21993;42.672;23.296;2023-07-13T11:37:48;94805.50;;;34.43;31.78
35892;BME280;21993;42.672;23.296;2023-07-13T11:40:14;94801.94;;;34.48;31.12
35892;BME280;21993;42.672;23.296;2023-07-13T11:42:40;94796.75;;;34.47;31.34
35892;BME280;21993;42.672;23.296;2023-07-13T11:45:19;94795.88;;;34.56;31.74
35892;BME280;21993;42.672;23.296;2023-07-13T11:47:48;94791.72;;;34.64;32.11
35892;BME280;21993;42.672;23.296;2023-07-13T11:50:19;94786.25;;;34.64;31.50
35892;BME280;21993;42.672;23.296;2023-07-13T11:52:46;94784.06;;;34.66;31.50
35892;BME280;21993;42.672;23.296;2023-07-13T11:55:16;94786.13;;;34.79;31.04
35892;BME280;21993;42.672;23.296;2023-07-13T11:57:50;94778.44;;;34.86;31.20
35892;BME280;21993;42.672;23.296;2023-07-13T12:00:22;94779.84;;;34.84;30.66
35892;BME280;21993;42.672;23.296;2023-07-13T12:02:51;94773.31;;;34.80;30.78
35892;BME280;21993;42.672;23.296;2023-07-13T12:05:18;94769.16;;;34.92;30.88
35892;BME280;21993;42.672;23.296;2023-07-13T12:07:44;94774.09;;;34.85;30.87
35892;BME280;21993;42.672;23.296;2023-07-13T12:10:24;94758.59;;;35.10;29.74
35892;BME280;21993;42.672;23.296;2023-07-13T12:12:55;94767.19;;;34.98;29.87
35892;BME280;21993;42.672;23.296;2023-07-13T12:15:23;94768.22;;;35.02;29.65
35892;BME280;21993;42.672;23.296;2023-07-13T12:17:49;94764.47;;;34.98;30.16
35892;BME280;21993;42.672;23.296;2023-07-13T12:20:22;94754.56;;;35.07;30.56
35892;BME280;21993;42.672;23.296;2023-07-13T12:22:49;94746.88;;;35.09;30.21
35892;BME280;21993;42.672;23.296;2023-07-13T12:25:15;94744.38;;;35.13;30.22
35892;BME280;21993;42.672;23.296;2023-07-13T12:27:46;94740.28;;;35.15;30.11
35892;BME280;21993;42.672;23.296;2023-07-13T12:30:28;94733.28;;;35.28;29.73
35892;BME280;21993;42.672;23.296;2023-07-13T12:33:11;94734.34;;;35.32;29.77
35892;BME280;21993;42.672;23.296;2023-07-13T12:35:48;94729.94;;;35.36;29.22
35892;BME280;21993;42.672;23.296;2023-07-13T12:38:15;94725.56;;;35.35;29.25
35892;BME280;21993;42.672;23.296;2023-07-13T12:40:41;94721.78;;;35.31;29.39
35892;BME280;21993;42.672;23.296;2023-07-13T12:43:13;94717.72;;;35.29;29.92
35892;BME280;21993;42.672;23.296;2023-07-13T12:45:58;94716.91;;;35.28;29.83
35892;BME280;21993;42.672;23.296;2023-07-13T12:48:23;94721.72;;;35.36;29.75
35892;BME280;21993;42.672;23.296;2023-07-13T12:50:50;94720.94;;;35.36;29.83
35892;BME280;21993;42.672;23.296;2023-07-13T12:53:22;94720.31;;;35.39;29.06
35892;BME280;21993;42.672;23.296;2023-07-13T12:55:56;94717.81;;;35.47;29.41
35892;BME280;21993;42.672;23.296;2023-07-13T12:58:32;94722.75;;;35.45;29.08
35892;BME280;21993;42.672;23.296;2023-07-13T13:00:59;94708.59;;;35.38;29.34
35892;BME280;21993;42.672;23.296;2023-07-13T13:08:49;94706.94;;;35.66;28.45
35892;BME280;21993;42.672;23.296;2023-07-13T13:11:15;94698.50;;;35.63;28.05
35892;BME280;21993;42.672;23.296;2023-07-13T13:13:42;94697.16;;;35.60;28.36
35892;BME280;21993;42.672;23.296;2023-07-13T13:16:12;94694.44;;;35.60;28.96
35892;BME280;21993;42.672;23.296;2023-07-13T13:18:39;94693.78;;;35.68;28.70
35892;BME280;21993;42.672;23.296;2023-07-13T13:21:05;94706.84;;;35.71;28.86
35892;BME280;21993;42.672;23.296;2023-07-13T13:23:30;94690.53;;;35.66;29.19